Time;durP1;ratioP1;P1;durP2;ratioP2;P2;SDS_P1;SDS_P2;PMS_P1;PMS_P2;Temp;Humidity;BMP_temperature;BMP_pressure;BME280_temperature;BME280_humidity;BME280_pressure;Samples;Min_cycle;Max_cycle;Signal;HPM_P1;HPM_P2
2021/10/04 00:02:21;;;;;;;9.87;2.00;;;12.90;99.90;;;;;;5013020;28;20217;-93
2021/10/04 00:04:48;;;;;;;13.23;2.67;;;12.80;99.90;;;;;;5011832;28;20206;-90
2021/10/04 00:07:15;;;;;;;9.97;2.37;;;12.80;99.90;;;;;;5011890;28;20203;-94
2021/10/04 00:09:42;;;;;;;6.77;1.87;;;12.80;99.90;;;;;;5011726;28;21371;-92
2021/10/04 00:12:10;;;;;;;9.10;1.80;;;12.80;99.90;;;;;;5011560;28;20618;-89
2021/10/04 00:14:37;;;;;;;8.10;2.10;;;12.80;99.90;;;;;;5012032;28;20653;-91
2021/10/04 00:17:05;;;;;;;7.83;2.17;;;12.80;99.90;;;;;;5011910;28;20555;-91
2021/10/04 00:19:32;;;;;;;7.13;1.90;;;12.80;99.90;;;;;;5011598;28;20207;-90
2021/10/04 00:21:59;;;;;;;7.30;2.17;;;12.80;99.90;;;;;;5011627;28;20205;-92
2021/10/04 00:24:26;;;;;;;7.20;1.70;;;12.80;99.90;;;;;;5011609;28;20203;-88
2021/10/04 00:26:53;;;;;;;13.50;1.70;;;12.80;99.90;;;;;;5011987;28;20211;-92
2021/10/04 00:29:22;;;;;;;6.63;1.63;;;12.80;99.90;;;;;;5010966;28;20270;-92
2021/10/04 00:31:49;;;;;;;14.17;2.83;;;12.80;99.90;;;;;;5011808;28;20204;-91
2021/10/04 00:34:16;;;;;;;4.37;1.53;;;12.80;99.90;;;;;;5011973;28;20210;-94
2021/10/04 00:36:43;;;;;;;9.93;1.93;;;12.80;99.90;;;;;;5012832;28;20203;-94
2021/10/04 00:39:11;;;;;;;7.87;2.03;;;12.80;99.90;;;;;;5031603;28;20199;-94
2021/10/04 00:41:38;;;;;;;9.03;2.10;;;12.80;99.90;;;;;;5023821;28;20595;-91
2021/10/04 00:44:05;;;;;;;11.73;2.43;;;12.80;99.90;;;;;;5011674;28;20196;-89
2021/10/04 00:46:34;;;;;;;9.77;2.50;;;12.70;99.90;;;;;;5011357;28;20215;-93
2021/10/04 00:49:01;;;;;;;12.57;2.40;;;12.70;99.90;;;;;;5011757;28;20243;-94
2021/10/04 00:51:29;;;;;;;11.80;2.70;;;12.80;99.90;;;;;;5012389;28;20227;-92
2021/10/04 00:53:56;;;;;;;10.37;2.70;;;12.70;99.90;;;;;;5013713;28;20317;-91
2021/10/04 00:56:24;;;;;;;10.03;2.27;;;12.80;99.90;;;;;;5014890;28;20191;-92
2021/10/04 00:58:51;;;;;;;10.37;2.70;;;12.80;99.90;;;;;;5028033;28;20285;-89
2021/10/04 01:01:18;;;;;;;11.33;2.47;;;12.80;99.90;;;;;;5033889;28;20199;-88
2021/10/04 01:03:47;;;;;;;11.37;2.47;;;12.90;99.90;;;;;;5034436;28;20202;-92
2021/10/04 01:06:14;;;;;;;11.73;2.30;;;12.90;99.90;;;;;;5035056;28;20206;-88
2021/10/04 01:08:41;;;;;;;8.30;1.80;;;12.90;99.90;;;;;;5033090;28;20202;-90
2021/10/04 01:11:09;;;;;;;12.50;1.93;;;12.90;99.90;;;;;;5032793;28;20230;-92
2021/10/04 01:13:35;;;;;;;8.30;2.13;;;12.90;99.90;;;;;;5035058;28;20202;-91
2021/10/04 01:16:03;;;;;;;7.90;2.30;;;12.90;99.90;;;;;;5015637;28;20215;-88
2021/10/04 01:18:29;;;;;;;7.73;2.33;;;12.80;99.90;;;;;;5015828;28;20202;-91
2021/10/04 01:20:58;;;;;;;9.83;2.00;;;12.80;99.90;;;;;;5016235;28;20290;-92
2021/10/04 01:23:28;;;;;;;10.07;2.20;;;12.90;99.90;;;;;;5015684;28;20286;-91
2021/10/04 01:25:55;;;;;;;12.33;3.10;;;12.90;99.90;;;;;;5015528;28;20203;-93
2021/10/04 01:28:22;;;;;;;8.63;1.73;;;12.80;99.90;;;;;;5023130;28;20218;-88
2021/10/04 01:30:49;;;;;;;9.60;1.70;;;12.80;99.90;;;;;;5019346;28;20219;-93
2021/10/04 01:33:17;;;;;;;10.67;2.03;;;12.80;99.90;;;;;;5014338;28;20211;-91
2021/10/04 01:35:44;;;;;;;10.47;2.53;;;12.80;99.90;;;;;;5014341;28;20207;-91
2021/10/04 01:38:12;;;;;;;6.63;2.13;;;12.80;99.90;;;;;;5027514;28;20210;-94
2021/10/04 01:40:43;;;;;;;8.93;2.00;;;12.80;99.90;;;;;;5033798;28;20199;-90
2021/10/04 01:43:10;;;;;;;10.30;2.43;;;12.90;99.90;;;;;;5033965;28;20222;-92
2021/10/04 01:45:38;;;;;;;16.07;2.07;;;12.90;99.90;;;;;;5024812;28;20211;-93
2021/10/04 01:48:06;;;;;;;7.27;2.13;;;12.80;99.90;;;;;;5014084;28;20866;-90
2021/10/04 01:50:35;;;;;;;11.30;2.13;;;12.90;99.90;;;;;;5013088;28;20227;-92
2021/10/04 01:53:03;;;;;;;8.57;1.87;;;12.90;99.90;;;;;;5014014;28;20210;-90
2021/10/04 01:55:31;;;;;;;9.13;1.67;;;12.90;99.90;;;;;;5014056;28;20203;-92
2021/10/04 01:57:58;;;;;;;6.20;1.60;;;13.00;99.90;;;;;;5013675;28;20209;-93
2021/10/04 02:00:25;;;;;;;10.97;1.90;;;13.00;99.90;;;;;;5013555;28;20572;-88
2021/10/04 02:02:54;;;;;;;11.43;2.10;;;12.90;99.90;;;;;;5012697;28;20203;-91
2021/10/04 02:05:21;;;;;;;8.67;2.00;;;12.90;99.90;;;;;;5013665;28;20218;-93
2021/10/04 02:07:49;;;;;;;10.73;2.27;;;13.00;99.90;;;;;;5013779;28;20207;-91
2021/10/04 02:10:18;;;;;;;13.37;2.57;;;13.00;99.90;;;;;;5008699;28;20663;-94
2021/10/04 02:12:47;;;;;;;8.70;1.97;;;13.00;99.90;;;;;;5013379;28;20191;-91
2021/10/04 02:15:14;;;;;;;12.60;2.50;;;13.00;99.90;;;;;;5013660;28;20207;-92
2021/10/04 02:17:44;;;;;;;12.60;2.40;;;13.00;99.90;;;;;;5010650;28;20204;-94
2021/10/04 02:20:15;;;;;;;10.23;1.80;;;12.90;99.90;;;;;;4990936;28;20207;-89
2021/10/04 02:22:42;;;;;;;11.87;2.43;;;12.90;99.90;;;;;;4993690;28;20207;-92
2021/10/04 02:25:10;;;;;;;13.83;2.80;;;13.00;99.90;;;;;;4993152;28;20664;-91
2021/10/04 02:27:37;;;;;;;11.10;1.90;;;13.00;99.90;;;;;;4994044;28;20204;-92
2021/10/04 02:30:09;;;;;;;10.97;2.23;;;13.10;99.90;;;;;;4994223;28;20259;-92
2021/10/04 02:32:36;;;;;;;8.80;2.53;;;13.10;99.90;;;;;;4993215;28;20210;-92
2021/10/04 02:35:04;;;;;;;11.20;2.63;;;13.20;99.90;;;;;;4993839;28;20216;-91
2021/10/04 02:37:31;;;;;;;11.50;3.40;;;13.20;99.90;;;;;;5001410;28;20217;-92
2021/10/04 02:39:58;;;;;;;11.90;2.47;;;13.20;99.90;;;;;;5013716;28;20208;-87
2021/10/04 02:42:24;;;;;;;13.00;3.03;;;13.20;99.90;;;;;;5005991;28;20212;-93
2021/10/04 02:44:51;;;;;;;15.30;2.93;;;13.30;99.90;;;;;;4994882;28;20196;-94
2021/10/04 02:47:20;;;;;;;12.13;2.67;;;13.40;99.90;;;;;;5013263;28;20579;-95
2021/10/04 02:49:47;;;;;;;15.57;3.00;;;13.40;99.90;;;;;;5013733;28;20204;-93
2021/10/04 02:52:16;;;;;;;8.77;2.17;;;13.40;99.90;;;;;;5013112;28;20299;-94
2021/10/04 02:54:43;;;;;;;17.60;3.83;;;13.40;99.90;;;;;;5011331;28;20203;-94
2021/10/04 02:57:10;;;;;;;14.97;3.03;;;13.40;99.90;;;;;;5009427;28;20213;-93
2021/10/04 02:59:38;;;;;;;11.87;2.27;;;13.40;99.90;;;;;;5009099;28;20191;-93
2021/10/04 03:02:05;;;;;;;13.23;2.20;;;13.40;99.90;;;;;;4997895;28;20204;-92
2021/10/04 03:04:33;;;;;;;12.87;2.70;;;13.40;99.90;;;;;;4992811;28;20220;-90
2021/10/04 03:07:00;;;;;;;13.53;2.60;;;13.40;99.90;;;;;;4992855;28;20219;-92
2021/10/04 03:09:27;;;;;;;8.63;2.37;;;13.40;99.90;;;;;;4993839;28;20200;-93
2021/10/04 03:11:54;;;;;;;13.37;2.77;;;13.40;99.90;;;;;;5031506;28;20297;-94
2021/10/04 03:14:21;;;;;;;8.87;2.20;;;13.40;99.90;;;;;;5026396;28;20289;-92
2021/10/04 03:16:48;;;;;;;10.00;2.43;;;13.30;99.90;;;;;;5012791;28;20209;-94
2021/10/04 03:19:15;;;;;;;9.63;2.30;;;13.30;99.90;;;;;;5028232;28;20207;-92
2021/10/04 03:21:43;;;;;;;10.13;2.10;;;13.20;99.90;;;;;;5024924;28;20892;-92
2021/10/04 03:24:13;;;;;;;10.77;2.60;;;13.20;99.90;;;;;;5018467;28;20183;-93
2021/10/04 03:26:41;;;;;;;9.63;2.10;;;13.20;99.90;;;;;;5026612;28;20229;-93
2021/10/04 03:29:09;;;;;;;8.43;1.93;;;13.20;99.90;;;;;;5025645;28;20199;-93
2021/10/04 03:31:36;;;;;;;12.03;1.70;;;13.20;99.90;;;;;;5028730;28;20211;-92
2021/10/04 03:34:03;;;;;;;6.20;1.60;;;13.20;99.90;;;;;;5019131;28;20217;-93
2021/10/04 03:36:30;;;;;;;8.30;1.70;;;13.10;99.90;;;;;;5015240;28;20207;-94
2021/10/04 03:38:59;;;;;;;6.90;2.80;;;13.10;99.90;;;;;;5039593;28;20603;-92
2021/10/04 03:41:26;;;;;;;11.30;2.17;;;13.10;99.90;;;;;;5033258;28;20202;-92
2021/10/04 03:43:53;;;;;;;8.73;1.77;;;13.00;99.90;;;;;;5031267;28;20206;-93
2021/10/04 03:46:20;;;;;;;9.47;1.67;;;13.00;99.90;;;;;;5032410;28;20740;-94
2021/10/04 03:48:47;;;;;;;11.47;2.00;;;13.00;99.90;;;;;;5032883;28;20205;-91
2021/10/04 03:51:14;;;;;;;5.17;1.40;;;13.00;99.90;;;;;;5032523;28;20226;-93
2021/10/04 03:53:41;;;;;;;5.57;2.10;;;12.90;99.90;;;;;;5030676;28;20202;-93
2021/10/04 03:56:10;;;;;;;9.93;1.87;;;12.90;99.90;;;;;;5013464;28;20222;-93
2021/10/04 03:58:37;;;;;;;5.13;1.73;;;12.90;99.90;;;;;;5012560;28;20211;-94
2021/10/04 04:01:04;;;;;;;4.13;1.50;;;12.80;99.90;;;;;;5012872;28;20221;-93
2021/10/04 04:03:31;;;;;;;7.00;1.60;;;12.80;99.90;;;;;;5012442;28;20213;-92
2021/10/04 04:05:58;;;;;;;7.90;1.60;;;12.80;99.90;;;;;;5013058;28;20290;-93
2021/10/04 04:08:25;;;;;;;4.17;1.53;;;12.70;99.90;;;;;;5013039;28;20514;-94
2021/10/04 04:10:52;;;;;;;12.00;2.33;;;12.70;99.90;;;;;;5007721;28;20235;-92
2021/10/04 04:13:21;;;;;;;5.67;1.43;;;12.70;99.90;;;;;;5012278;28;20210;-93
2021/10/04 04:15:48;;;;;;;11.00;1.97;;;12.60;99.90;;;;;;5012661;28;20202;-93
2021/10/04 04:18:15;;;;;;;8.00;2.00;;;12.60;99.90;;;;;;5013476;28;20211;-92
2021/10/04 04:20:41;;;;;;;11.20;2.03;;;12.60;99.90;;;;;;5013434;28;20217;-92
2021/10/04 04:23:08;;;;;;;5.83;1.47;;;12.50;99.90;;;;;;5013342;28;20206;-90
2021/10/04 04:25:35;;;;;;;8.33;1.70;;;12.50;99.90;;;;;;5013473;28;20214;-93
2021/10/04 04:28:03;;;;;;;5.77;1.77;;;12.50;99.90;;;;;;4999158;28;20218;-93
2021/10/04 04:30:32;;;;;;;7.27;1.73;;;12.40;99.90;;;;;;5001204;28;20246;-93
2021/10/04 04:32:59;;;;;;;2.90;1.23;;;12.40;99.90;;;;;;5004349;28;20203;-93
2021/10/04 04:35:26;;;;;;;6.57;2.10;;;12.40;99.90;;;;;;4995900;28;20311;-92
2021/10/04 04:37:53;;;;;;;3.83;1.50;;;12.40;99.90;;;;;;5007044;28;20215;-95
2021/10/04 04:40:20;;;;;;;5.87;1.73;;;12.30;99.90;;;;;;5015511;28;20206;-94
2021/10/04 04:42:48;;;;;;;10.13;2.17;;;12.30;99.90;;;;;;5015516;28;20206;-95
2021/10/04 04:45:19;;;;;;;5.17;1.97;;;12.30;99.90;;;;;;5015485;28;20226;-94
2021/10/04 04:47:49;;;;;;;8.20;1.70;;;12.30;99.90;;;;;;5012921;28;20205;-92
2021/10/04 04:50:18;;;;;;;5.33;1.70;;;12.20;99.90;;;;;;5013161;28;20230;-93
2021/10/04 04:52:44;;;;;;;6.53;1.60;;;12.20;99.90;;;;;;5014504;28;20274;-93
2021/10/04 04:55:12;;;;;;;7.33;1.50;;;12.20;99.90;;;;;;5014985;28;20214;-93
2021/10/04 04:57:39;;;;;;;7.03;1.50;;;12.20;99.90;;;;;;5015303;28;20212;-92
2021/10/04 05:00:11;;;;;;;7.70;1.60;;;12.20;99.90;;;;;;5013036;28;20195;-92
2021/10/04 05:02:38;;;;;;;7.10;1.80;;;12.10;99.90;;;;;;4994434;28;20204;-94
2021/10/04 05:05:07;;;;;;;11.80;2.13;;;12.10;99.90;;;;;;4995140;28;20800;-93
2021/10/04 05:07:35;;;;;;;5.10;1.37;;;12.10;99.90;;;;;;4995477;28;20409;-94
2021/10/04 05:10:03;;;;;;;5.17;1.70;;;12.00;99.90;;;;;;5000527;28;20242;-93
2021/10/04 05:12:30;;;;;;;7.03;1.87;;;12.00;99.90;;;;;;5013447;28;20237;-92
2021/10/04 05:14:57;;;;;;;5.07;1.50;;;12.00;99.90;;;;;;5012053;28;20487;-93
2021/10/04 05:17:23;;;;;;;6.27;1.57;;;11.90;99.90;;;;;;5014803;28;20207;-93
2021/10/04 05:19:50;;;;;;;5.57;1.73;;;11.90;99.90;;;;;;5014781;28;20203;-92
2021/10/04 05:22:19;;;;;;;6.77;1.70;;;11.90;99.90;;;;;;5014715;28;20199;-93
2021/10/04 05:24:46;;;;;;;6.27;2.63;;;11.80;99.90;;;;;;5013944;28;20214;-93
2021/10/04 05:27:13;;;;;;;5.10;1.40;;;11.80;99.90;;;;;;5014874;28;20219;-93
2021/10/04 05:29:40;;;;;;;8.30;1.77;;;11.80;99.90;;;;;;5014450;28;20650;-92
2021/10/04 05:32:08;;;;;;;5.27;1.60;;;11.70;99.90;;;;;;5014263;28;20521;-93
2021/10/04 05:34:35;;;;;;;8.70;2.23;;;11.70;99.90;;;;;;5014549;28;20215;-92
2021/10/04 05:37:02;;;;;;;5.07;1.67;;;11.70;99.90;;;;;;5018389;28;20298;-94
2021/10/04 05:39:30;;;;;;;6.27;2.40;;;11.70;99.90;;;;;;5034326;28;20218;-93
2021/10/04 05:41:57;;;;;;;4.77;1.77;;;11.60;99.90;;;;;;5033967;28;20208;-93
2021/10/04 05:44:24;;;;;;;6.17;1.80;;;11.60;99.90;;;;;;5032349;28;20597;-93
2021/10/04 05:46:51;;;;;;;5.33;1.87;;;11.60;99.90;;;;;;5034713;28;20213;-92
2021/10/04 05:49:18;;;;;;;5.87;1.77;;;11.60;99.90;;;;;;5033946;28;20217;-92
2021/10/04 05:51:45;;;;;;;7.23;1.93;;;11.50;99.90;;;;;;5034831;28;20226;-92
2021/10/04 05:54:12;;;;;;;6.17;2.03;;;11.60;99.90;;;;;;5035967;28;20203;-94
2021/10/04 05:56:40;;;;;;;8.77;2.63;;;11.50;99.90;;;;;;5027475;28;20211;-89
2021/10/04 05:59:07;;;;;;;4.93;1.80;;;11.50;99.90;;;;;;5014951;28;20206;-91
2021/10/04 06:01:34;;;;;;;6.43;2.07;;;11.50;99.90;;;;;;5013286;28;20202;-92
2021/10/04 06:04:04;;;;;;;7.13;2.07;;;11.50;99.90;;;;;;5013898;28;20318;-92
2021/10/04 06:06:32;;;;;;;7.50;2.50;;;11.50;99.90;;;;;;5024741;28;20219;-90
2021/10/04 06:08:59;;;;;;;8.13;2.30;;;11.50;99.90;;;;;;5033673;28;20214;-94
2021/10/04 06:11:29;;;;;;;4.07;2.10;;;11.50;99.90;;;;;;5018040;28;20243;-91
2021/10/04 06:13:58;;;;;;;6.07;2.50;;;11.50;99.90;;;;;;5013324;28;20203;-91
2021/10/04 06:16:25;;;;;;;6.80;2.90;;;11.50;99.90;;;;;;5013083;28;20207;-91
2021/10/04 06:18:52;;;;;;;3.23;2.17;;;11.40;99.90;;;;;;5011789;28;20651;-87
2021/10/04 06:21:19;;;;;;;7.07;3.23;;;11.40;99.90;;;;;;5013041;28;20203;-95
2021/10/04 06:23:46;;;;;;;9.47;2.60;;;11.40;99.90;;;;;;5016103;28;20222;-89
2021/10/04 06:26:13;;;;;;;5.40;2.10;;;11.40;99.90;;;;;;5032753;28;20203;-91
2021/10/04 06:28:40;;;;;;;8.30;3.00;;;11.40;99.90;;;;;;5032762;28;20252;-94
2021/10/04 06:31:08;;;;;;;5.93;2.40;;;11.40;99.90;;;;;;5032990;28;20229;-93
2021/10/04 06:33:35;;;;;;;5.93;2.60;;;11.40;99.90;;;;;;5027600;28;20219;-93
2021/10/04 06:36:03;;;;;;;5.23;2.50;;;11.30;99.90;;;;;;5012993;28;20204;-91
2021/10/04 06:38:30;;;;;;;6.50;2.90;;;11.30;99.90;;;;;;5020226;28;20614;-92
2021/10/04 06:40:56;;;;;;;8.60;2.90;;;11.30;99.90;;;;;;5030604;28;20603;-90
2021/10/04 06:43:23;;;;;;;5.50;2.80;;;11.30;99.90;;;;;;5031171;28;20209;-91
2021/10/04 06:45:51;;;;;;;5.47;3.07;;;11.30;99.90;;;;;;5028805;28;20199;-92
2021/10/04 06:48:19;;;;;;;7.43;3.17;;;11.40;99.90;;;;;;5012397;28;20626;-90
2021/10/04 06:50:46;;;;;;;7.83;3.10;;;11.40;99.90;;;;;;5012853;28;20298;-94
2021/10/04 06:53:13;;;;;;;4.80;3.07;;;11.40;99.90;;;;;;5012706;28;20219;-93
2021/10/04 06:55:40;;;;;;;7.27;3.00;;;11.40;99.90;;;;;;5013279;28;20199;-94
2021/10/04 06:58:07;;;;;;;8.07;3.17;;;11.40;99.90;;;;;;5013286;28;20313;-90
2021/10/04 07:00:34;;;;;;;6.53;3.63;;;11.40;99.90;;;;;;5011931;28;20210;-91
2021/10/04 07:03:01;;;;;;;7.60;3.63;;;11.50;99.90;;;;;;5012907;28;20207;-87
2021/10/04 07:05:30;;;;;;;5.67;3.23;;;11.50;99.90;;;;;;5015124;28;20207;-90
2021/10/04 07:07:57;;;;;;;6.00;3.60;;;11.50;99.90;;;;;;5021330;28;20594;-91
2021/10/04 07:10:24;;;;;;;8.90;3.20;;;11.50;99.90;;;;;;5012303;28;20258;-92
2021/10/04 07:12:51;;;;;;;7.90;4.07;;;11.50;99.90;;;;;;5003217;28;20610;-91
2021/10/04 07:15:19;;;;;;;8.97;3.20;;;11.50;99.90;;;;;;4996469;28;20579;-92
2021/10/04 07:17:46;;;;;;;8.40;3.80;;;11.50;99.90;;;;;;5016621;28;20195;-93
2021/10/04 07:20:13;;;;;;;6.63;3.60;;;11.50;99.90;;;;;;5014631;28;20210;-92
2021/10/04 07:23:33;;;;;;;6.83;3.77;;;11.50;99.90;;;;;;4984545;28;20207;-93
2021/10/04 07:26:02;;;;;;;8.10;3.57;;;11.50;99.90;;;;;;4993828;28;20604;-95
2021/10/04 07:28:29;;;;;;;10.47;3.80;;;11.50;99.90;;;;;;4993986;28;20977;-92
2021/10/04 07:30:58;;;;;;;8.17;3.70;;;11.60;99.90;;;;;;4993945;28;20331;-93
2021/10/04 07:33:25;;;;;;;8.57;3.93;;;11.60;99.90;;;;;;5000115;28;20208;-92
2021/10/04 07:35:55;;;;;;;6.83;3.83;;;11.60;99.90;;;;;;4999966;28;20581;-89
2021/10/04 07:38:22;;;;;;;8.80;3.63;;;11.60;99.90;;;;;;4993611;28;20200;-90
2021/10/04 07:44:20;;;;;;;4.27;2.97;;;11.70;99.90;;;;;;4959845;28;20890;-93
2021/10/04 07:46:47;;;;;;;8.77;3.53;;;11.70;99.90;;;;;;4991129;28;20203;-93
2021/10/04 07:49:14;;;;;;;7.17;3.67;;;11.80;99.90;;;;;;4992110;28;20212;-87
2021/10/04 07:51:41;;;;;;;6.63;3.33;;;11.80;99.90;;;;;;4992256;28;20200;-87
2021/10/04 07:54:08;;;;;;;7.50;3.40;;;11.90;99.90;;;;;;5001070;28;20207;-87
2021/10/04 07:56:36;;;;;;;6.53;3.00;;;11.90;99.90;;;;;;5011360;28;20215;-90
2021/10/04 07:59:03;;;;;;;5.47;3.00;;;12.00;99.90;;;;;;5012086;28;20490;-88
2021/10/04 08:01:32;;;;;;;8.37;3.40;;;12.00;99.90;;;;;;5015126;28;20497;-89
2021/10/04 08:03:59;;;;;;;6.03;3.47;;;12.10;99.90;;;;;;5000950;28;20207;-92
2021/10/04 08:06:26;;;;;;;5.07;3.00;;;12.20;99.90;;;;;;4995685;28;20218;-92
2021/10/04 08:08:53;;;;;;;5.63;2.73;;;12.20;99.90;;;;;;5001911;28;20207;-93
2021/10/04 08:11:20;;;;;;;5.87;2.83;;;12.30;99.90;;;;;;5031083;28;20234;-92
2021/10/04 08:13:50;;;;;;;8.83;3.43;;;12.30;99.90;;;;;;5035408;28;20242;-92
2021/10/04 08:16:17;;;;;;;5.90;2.60;;;12.30;99.90;;;;;;5035562;28;20217;-91
2021/10/04 08:18:46;;;;;;;6.73;2.90;;;12.40;99.90;;;;;;5035794;28;20281;-90
2021/10/04 08:21:15;;;;;;;6.47;2.83;;;12.40;99.90;;;;;;5035263;28;20617;-91
2021/10/04 08:23:42;;;;;;;5.73;3.33;;;12.50;99.90;;;;;;5034980;28;20313;-89
2021/10/04 08:26:09;;;;;;;6.57;3.30;;;12.50;99.90;;;;;;5015317;28;20215;-88
2021/10/04 08:28:36;;;;;;;7.10;2.53;;;12.60;99.90;;;;;;5013907;28;20222;-89
2021/10/04 08:31:04;;;;;;;8.60;2.37;;;12.60;99.90;;;;;;5013764;28;20231;-88
2021/10/04 08:33:30;;;;;;;5.67;2.43;;;12.70;99.90;;;;;;5014558;28;20227;-91
2021/10/04 08:35:59;;;;;;;8.17;3.07;;;12.80;99.90;;;;;;5015321;28;20214;-91
2021/10/04 08:38:26;;;;;;;5.33;2.50;;;12.80;99.90;;;;;;5021240;28;20630;-88
2021/10/04 08:40:53;;;;;;;6.37;2.53;;;12.90;99.90;;;;;;5014662;28;20262;-87
2021/10/04 08:43:20;;;;;;;9.30;2.40;;;13.00;99.90;;;;;;5014736;28;20202;-87
2021/10/04 08:45:48;;;;;;;7.40;2.50;;;13.00;99.90;;;;;;5031096;28;20297;-87
2021/10/04 08:48:15;;;;;;;5.90;2.37;;;13.10;99.90;;;;;;5027345;28;20593;-85
2021/10/04 08:50:43;;;;;;;6.50;2.40;;;13.20;99.90;;;;;;5014919;28;20214;-84
2021/10/04 08:53:11;;;;;;;8.00;2.90;;;13.30;99.90;;;;;;5014915;28;20223;-87
2021/10/04 08:55:38;;;;;;;6.63;2.27;;;13.30;99.90;;;;;;5019188;28;20249;-87
2021/10/04 08:58:09;;;;;;;6.67;2.40;;;13.40;99.90;;;;;;5034380;28;20202;-87
2021/10/04 09:00:36;;;;;;;10.40;2.30;;;13.50;99.90;;;;;;5034020;28;20610;-86
2021/10/04 09:03:04;;;;;;;4.90;1.73;;;13.50;99.90;;;;;;5028535;28;20204;-90
2021/10/04 09:05:32;;;;;;;6.03;2.20;;;13.60;99.90;;;;;;5016650;28;20214;-90
2021/10/04 09:08:05;;;;;;;6.63;1.87;;;13.70;99.90;;;;;;5015800;28;20207;-87
2021/10/04 09:10:35;;;;;;;3.83;1.73;;;13.80;99.90;;;;;;5013958;28;20231;-89
2021/10/04 09:13:03;;;;;;;9.50;2.30;;;13.90;99.90;;;;;;5013702;28;20238;-88
2021/10/04 09:15:36;;;;;;;6.53;2.03;;;14.00;99.90;;;;;;5012196;28;20206;-83
2021/10/04 09:18:06;;;;;;;3.33;2.17;;;14.10;99.90;;;;;;5012578;28;20203;-87
2021/10/04 09:20:58;;;;;;;5.20;2.07;;;14.20;99.90;;;;;;5012493;28;20584;-87
2021/10/04 09:23:36;;;;;;;8.57;1.80;;;14.30;99.90;;;;;;5011641;28;20196;-89
2021/10/04 09:26:07;;;;;;;5.77;1.80;;;14.40;99.90;;;;;;5012871;28;20207;-88
2021/10/04 09:28:36;;;;;;;6.87;2.00;;;14.50;99.90;;;;;;5012712;28;20210;-91
2021/10/04 09:31:22;;;;;;;7.33;1.83;;;14.60;99.90;;;;;;5012819;28;20215;-94
2021/10/04 09:34:12;;;;;;;4.23;1.87;;;14.80;99.90;;;;;;5012963;28;20272;-89
2021/10/04 09:36:41;;;;;;;9.63;2.13;;;15.00;99.90;;;;;;5011590;28;20219;-88
2021/10/04 09:39:17;;;;;;;9.70;2.57;;;15.10;99.90;;;;;;5031100;28;20602;-84
2021/10/04 09:42:01;;;;;;;9.03;2.30;;;15.20;99.90;;;;;;5032099;28;20213;-88
2021/10/04 09:44:46;;;;;;;7.50;2.10;;;15.30;99.90;;;;;;5024033;28;20245;-87
2021/10/04 09:47:15;;;;;;;7.20;2.10;;;15.40;99.90;;;;;;5013336;28;20195;-89
2021/10/04 09:49:50;;;;;;;6.07;1.93;;;15.50;99.90;;;;;;5013053;28;20412;-89
2021/10/04 09:52:17;;;;;;;6.93;2.30;;;15.60;99.90;;;;;;5013532;28;20245;-89
2021/10/04 09:54:45;;;;;;;7.17;1.90;;;15.60;99.90;;;;;;5013401;28;20210;-90
2021/10/04 09:57:19;;;;;;;3.38;1.77;;;15.80;99.90;;;;;;5012313;28;20211;-94
2021/10/04 09:59:47;;;;;;;6.00;2.07;;;15.90;99.90;;;;;;5013909;28;20224;-89
2021/10/04 10:02:15;;;;;;;9.70;2.40;;;16.10;99.90;;;;;;5013435;28;20219;-91
2021/10/04 10:04:44;;;;;;;7.30;2.50;;;16.20;99.90;;;;;;5013568;28;20218;-93
2021/10/04 10:07:11;;;;;;;9.70;3.43;;;16.30;99.90;;;;;;5013181;28;20206;-89
2021/10/04 10:09:39;;;;;;;7.40;1.97;;;16.50;99.90;;;;;;5012461;28;20215;-87
2021/10/04 10:12:08;;;;;;;6.78;2.20;;;16.50;99.90;;;;;;5012682;28;20195;-90
2021/10/04 10:14:41;;;;;;;5.20;2.13;;;16.60;99.90;;;;;;5012204;28;20587;-93
2021/10/04 10:17:15;;;;;;;6.85;1.80;;;16.70;99.90;;;;;;5012982;28;20199;-88
2021/10/04 10:19:43;;;;;;;8.25;2.15;;;16.80;99.90;;;;;;5012465;28;20208;-89
2021/10/04 10:22:12;;;;;;;8.25;3.10;;;17.00;99.90;;;;;;5018372;28;20207;-90
2021/10/04 10:24:40;;;;;;;11.02;2.78;;;17.20;99.90;;;;;;5031282;28;20199;-88
2021/10/04 10:27:06;;;;;;;15.95;3.50;;;17.30;99.90;;;;;;5031943;28;20210;-87
2021/10/04 10:29:35;;;;;;;7.30;2.53;;;17.10;99.90;;;;;;5024224;28;20253;-92
2021/10/04 10:32:18;;;;;;;8.77;2.40;;;17.10;99.90;;;;;;5012235;28;20512;-87
2021/10/04 10:35:04;;;;;;;10.05;2.33;;;17.20;99.90;;;;;;5012904;28;20210;-92
2021/10/04 10:37:47;;;;;;;5.32;2.05;;;17.20;99.90;;;;;;5016727;28;20194;-93
2021/10/04 10:40:16;;;;;;;6.28;2.10;;;17.40;99.90;;;;;;5034135;22;20849;-89
2021/10/04 10:42:59;;;;;;;9.70;2.65;;;17.40;99.90;;;;;;5012923;28;20206;-90
2021/10/04 10:45:27;;;;;;;8.68;2.30;;;17.50;99.90;;;;;;5004706;28;20212;-89
2021/10/04 10:47:59;;;;;;;9.40;2.45;;;17.40;99.90;;;;;;4996815;28;20208;-95
2021/10/04 10:50:32;;;;;;;5.53;2.17;;;17.50;99.90;;;;;;4993915;28;20200;-94
2021/10/04 10:53:06;;;;;;;9.20;2.42;;;17.60;99.90;;;;;;4991794;28;20239;-88
2021/10/04 10:55:36;;;;;;;7.80;2.28;;;17.50;99.90;;;;;;4992109;28;20292;-84
2021/10/04 10:58:07;;;;;;;5.72;2.00;;;17.60;99.90;;;;;;4994035;28;20216;-87
2021/10/04 11:00:36;;;;;;;8.55;2.33;;;17.70;99.90;;;;;;5011644;28;20207;-85
2021/10/04 11:03:07;;;;;;;8.13;2.40;;;17.60;99.90;;;;;;5009509;28;20207;-86
2021/10/04 11:05:57;;;;;;;6.10;2.05;;;17.60;99.90;;;;;;5008632;28;21055;-84
2021/10/04 11:08:46;;;;;;;7.25;2.55;;;17.70;99.90;;;;;;5001688;22;20211;-88
2021/10/04 11:11:18;;;;;;;13.57;2.70;;;17.60;99.90;;;;;;4991649;28;20790;-90
2021/10/04 11:14:06;;;;;;;9.35;2.30;;;17.70;99.90;;;;;;4975612;28;20315;-92
2021/10/04 11:16:48;;;;;;;8.10;1.80;;;17.80;99.90;;;;;;4973782;28;20295;-88
2021/10/04 11:19:27;;;;;;;5.15;2.03;;;18.00;99.90;;;;;;4992610;28;20525;-91
2021/10/04 11:21:54;;;;;;;9.57;2.30;;;18.10;99.90;;;;;;4984178;28;20209;-89
2021/10/04 11:24:22;;;;;;;13.63;3.50;;;18.10;99.90;;;;;;4972340;28;20613;-89
2021/10/04 11:26:50;;;;;;;7.97;2.50;;;18.10;99.90;;;;;;4972983;28;20969;-88
2021/10/04 11:29:21;;;;;;;12.13;2.25;;;18.10;99.90;;;;;;4974322;28;20197;-87
2021/10/04 11:31:49;;;;;;;5.63;1.98;;;18.20;99.90;;;;;;4991307;28;20290;-92
2021/10/04 11:34:18;;;;;;;6.88;2.13;;;18.40;99.90;;;;;;4991540;28;20231;-86
2021/10/04 11:36:48;;;;;;;8.73;2.38;;;18.40;99.90;;;;;;4993566;28;20231;-85
2021/10/04 11:39:17;;;;;;;9.93;2.35;;;18.40;99.90;;;;;;4997400;28;20214;-86
2021/10/04 11:41:47;;;;;;;10.02;2.10;;;18.50;99.90;;;;;;4991043;28;20913;-86
2021/10/04 11:44:18;;;;;;;8.52;1.90;;;18.40;99.90;;;;;;4991629;28;20232;-88
2021/10/04 11:46:49;;;;;;;9.02;1.92;;;18.40;99.90;;;;;;4996679;28;20280;-87
2021/10/04 11:49:19;;;;;;;8.40;2.05;;;18.50;99.90;;;;;;5012075;28;20187;-89
2021/10/04 11:51:50;;;;;;;7.20;2.10;;;18.60;99.90;;;;;;5010717;28;20616;-89
2021/10/04 11:54:39;;;;;;;7.20;1.80;;;18.70;99.90;;;;;;4995050;28;20566;-87
2021/10/04 11:57:08;;;;;;;6.65;1.90;;;18.60;99.90;;;;;;4990433;28;20230;-86
2021/10/04 11:59:47;;;;;;;4.97;1.75;;;18.70;99.90;;;;;;4990625;28;20579;-85
2021/10/04 12:02:22;;;;;;;6.47;2.03;;;18.80;99.90;;;;;;4990019;28;20204;-80
2021/10/04 12:04:50;;;;;;;9.98;1.90;;;18.80;99.90;;;;;;4990305;28;20241;-85
2021/10/04 12:07:20;;;;;;;6.43;1.75;;;18.90;99.90;;;;;;4990488;28;20207;-85
2021/10/04 12:09:56;;;;;;;7.30;2.10;;;18.90;99.90;;;;;;4976857;28;20243;-85
2021/10/04 12:12:32;;;;;;;9.07;2.03;;;18.70;99.90;;;;;;4971945;28;20271;-89
2021/10/04 12:14:59;;;;;;;7.05;2.28;;;18.50;99.90;;;;;;4972197;28;20629;-88
2021/10/04 12:17:26;;;;;;;6.05;1.70;;;18.40;99.90;;;;;;4972095;28;20200;-90
2021/10/04 12:19:53;;;;;;;5.47;1.88;;;18.30;99.90;;;;;;4971040;28;20212;-89
2021/10/04 12:22:31;;;;;;;7.47;2.22;;;18.20;99.90;;;;;;4970811;28;20203;-83
2021/10/04 12:24:58;;;;;;;5.80;1.80;;;18.00;99.90;;;;;;4969461;28;20770;-88
2021/10/04 12:27:25;;;;;;;6.75;1.90;;;17.80;99.90;;;;;;4968616;28;20211;-90
2021/10/04 12:29:58;;;;;;;6.32;1.80;;;17.70;99.90;;;;;;4970404;28;20613;-89
2021/10/04 12:32:27;;;;;;;7.15;1.70;;;17.60;99.90;;;;;;4968380;28;20204;-87
2021/10/04 12:35:06;;;;;;;7.43;1.65;;;17.40;99.90;;;;;;4971417;28;20236;-90
2021/10/04 12:37:38;;;;;;;8.02;1.65;;;17.30;99.90;;;;;;4971620;28;20212;-87
2021/10/04 12:40:20;;;;;;;5.75;1.65;;;17.30;99.90;;;;;;4971468;28;20194;-90
2021/10/04 12:42:47;;;;;;;6.93;1.70;;;17.30;99.90;;;;;;4971379;28;20213;-88
2021/10/04 12:45:14;;;;;;;6.90;1.95;;;17.40;99.90;;;;;;4971218;28;20281;-89
2021/10/04 12:47:54;;;;;;;8.23;2.40;;;17.40;99.90;;;;;;4974612;28;20209;-92
2021/10/04 12:50:22;;;;;;;7.15;1.63;;;17.40;99.90;;;;;;4980050;28;20199;-88
2021/10/04 12:52:50;;;;;;;8.65;2.38;;;17.50;99.90;;;;;;4994258;28;20227;-86
2021/10/04 12:55:17;;;;;;;10.93;2.38;;;17.50;99.90;;;;;;4991071;28;20348;-87
2021/10/04 12:57:44;;;;;;;5.93;1.38;;;17.60;99.90;;;;;;4974639;28;20216;-88
2021/10/04 13:00:11;;;;;;;7.68;1.98;;;17.60;99.90;;;;;;4975502;28;20219;-86